createdAt,value
2023-02-14T00:00:49.851Z,-0.40
2023-02-14T00:03:18.175Z,-0.40
2023-02-14T00:05:45.244Z,-0.40
2023-02-14T00:08:14.230Z,-0.40
2023-02-14T00:10:41.454Z,-0.40
2023-02-14T00:13:08.567Z,-0.40
2023-02-14T00:15:35.744Z,-0.40
2023-02-14T00:18:03.726Z,-0.50
2023-02-14T00:20:31.027Z,-0.50
2023-02-14T00:22:58.329Z,-0.50
2023-02-14T00:25:25.685Z,-0.50
2023-02-14T00:27:54.493Z,-0.60
2023-02-14T00:30:23.073Z,-0.50
2023-02-14T00:32:50.275Z,-0.60
2023-02-14T00:35:17.629Z,-0.70
2023-02-14T00:37:46.121Z,-0.60
2023-02-14T00:40:14.018Z,-0.70
2023-02-14T00:42:41.114Z,-0.70
2023-02-14T00:45:09.619Z,-0.70
2023-02-14T00:47:36.811Z,-0.70
2023-02-14T00:50:05.205Z,-0.70
2023-02-14T00:52:32.559Z,-0.70
2023-02-14T00:54:59.707Z,-0.80
2023-02-14T00:57:27.279Z,-0.70
2023-02-14T00:59:54.418Z,-0.80
2023-02-14T01:02:21.756Z,-0.70
2023-02-14T01:04:48.915Z,-0.80
2023-02-14T01:07:16.247Z,-0.80
2023-02-14T01:09:43.530Z,-0.90
2023-02-14T01:12:10.766Z,-0.90
2023-02-14T01:14:38.462Z,-0.90
2023-02-14T01:17:05.655Z,-0.90
2023-02-14T01:19:32.784Z,-1.00
2023-02-14T01:22:00.571Z,-1.00
2023-02-14T01:24:27.768Z,-1.00
2023-02-14T01:26:54.829Z,-0.90
2023-02-14T01:29:21.954Z,-1.00
2023-02-14T01:31:49.454Z,-1.00
2023-02-14T01:34:17.715Z,-1.10
2023-02-14T01:36:47.099Z,-1.10
2023-02-14T01:39:15.160Z,-1.00
2023-02-14T01:41:48.833Z,-1.10
2023-02-14T01:44:19.628Z,-1.10
2023-02-14T01:46:47.165Z,-1.10
2023-02-14T01:49:14.612Z,-1.10
2023-02-14T01:51:44.888Z,-1.20
2023-02-14T01:54:13.436Z,-1.20
2023-02-14T01:56:45.913Z,-1.20
2023-02-14T01:59:15.404Z,-1.20
2023-02-14T02:01:44.427Z,-1.20
2023-02-14T02:04:16.672Z,-1.30
2023-02-14T02:06:49.721Z,-1.30
2023-02-14T02:09:19.162Z,-1.30
2023-02-14T02:11:46.573Z,-1.30
2023-02-14T02:14:20.652Z,-1.30
2023-02-14T02:17:20.656Z,-1.40
2023-02-14T02:19:51.610Z,-1.40
2023-02-14T02:22:21.700Z,-1.40
2023-02-14T02:24:56.904Z,-1.40
2023-02-14T02:27:47.519Z,-1.40
2023-02-14T02:30:17.924Z,-1.50
2023-02-14T02:33:08.063Z,-1.50
2023-02-14T02:35:35.464Z,-1.50
2023-02-14T02:38:24.330Z,-1.50
2023-02-14T02:40:54.730Z,-1.50
2023-02-14T02:43:25.018Z,-1.50
2023-02-14T02:46:23.125Z,-1.50
2023-02-14T02:48:50.272Z,-1.50
2023-02-14T02:51:42.799Z,-1.60
2023-02-14T02:54:15.162Z,-1.60
2023-02-14T02:56:56.165Z,-1.60
2023-02-14T02:59:29.263Z,-1.60
2023-02-14T03:02:02.153Z,-1.60
2023-02-14T03:05:08.464Z,-1.60
2023-02-14T03:07:36.713Z,-1.60
2023-02-14T03:10:08.003Z,-1.60
2023-02-14T03:12:35.261Z,-1.70
2023-02-14T03:15:02.360Z,-1.70
2023-02-14T03:17:29.737Z,-1.70
2023-02-14T03:20:18.113Z,-1.70
2023-02-14T03:22:48.658Z,-1.70
2023-02-14T03:25:35.120Z,-1.80
2023-02-14T03:28:08.551Z,-1.80
2023-02-14T03:30:51.341Z,-1.80
2023-02-14T03:33:22.227Z,-1.80
2023-02-14T03:36:09.734Z,-1.90
2023-02-14T03:38:42.280Z,-1.80
2023-02-14T03:41:11.920Z,-1.80
2023-02-14T03:43:44.958Z,-1.80
2023-02-14T03:46:15.330Z,-1.80
2023-02-14T03:48:42.917Z,-1.80
2023-02-14T03:51:12.165Z,-1.80
2023-02-14T03:53:42.996Z,-1.90
2023-02-14T03:56:15.571Z,-1.90
2023-02-14T03:58:48.361Z,-1.90
2023-02-14T04:01:43.083Z,-1.90
2023-02-14T04:04:10.774Z,-1.90
2023-02-14T04:06:37.903Z,-2.00
2023-02-14T04:09:05.073Z,-2.00
2023-02-14T04:11:35.292Z,-2.00
2023-02-14T04:14:03.164Z,-2.00
2023-02-14T04:16:30.579Z,-2.10
2023-02-14T04:19:20.414Z,-2.10
2023-02-14T04:21:48.901Z,-2.00
2023-02-14T04:24:16.788Z,-2.10
2023-02-14T04:26:54.329Z,-2.10
2023-02-14T04:29:21.605Z,-2.10
2023-02-14T04:31:49.112Z,-2.10
2023-02-14T04:34:16.264Z,-2.10
2023-02-14T04:36:44.625Z,-2.20
2023-02-14T04:39:11.736Z,-2.20
2023-02-14T04:41:39.084Z,-2.20
2023-02-14T04:44:13.427Z,-2.20
2023-02-14T04:46:43.615Z,-2.20
2023-02-14T04:49:10.904Z,-2.20
2023-02-14T04:51:37.988Z,-2.20
2023-02-14T04:54:05.194Z,-2.20
2023-02-14T04:56:32.570Z,-2.20
2023-02-14T04:58:59.679Z,-2.30
2023-02-14T05:01:26.925Z,-2.30
2023-02-14T05:03:54.124Z,-2.30
2023-02-14T05:06:21.380Z,-2.30
2023-02-14T05:08:48.635Z,-2.40
2023-02-14T05:11:15.697Z,-2.40
2023-02-14T05:13:43.207Z,-2.40
2023-02-14T05:16:10.439Z,-2.40
2023-02-14T05:18:37.925Z,-2.40
2023-02-14T05:21:05.282Z,-2.40
2023-02-14T05:23:32.533Z,-2.40
2023-02-14T05:25:59.702Z,-2.50
2023-02-14T05:28:26.811Z,-2.50
2023-02-14T05:30:54.550Z,-2.50
2023-02-14T05:33:21.638Z,-2.50
2023-02-14T05:35:49.071Z,-2.50
2023-02-14T05:38:16.129Z,-2.50
2023-02-14T05:40:43.743Z,-2.50
2023-02-14T05:43:11.191Z,-2.50
2023-02-14T05:45:38.567Z,-2.50
2023-02-14T05:48:06.375Z,-2.50
2023-02-14T05:50:33.731Z,-2.50
2023-02-14T05:53:01.198Z,-2.50
2023-02-14T05:55:28.830Z,-2.50
2023-02-14T05:57:56.006Z,-2.50
2023-02-14T06:00:24.508Z,-2.60
2023-02-14T06:02:51.666Z,-2.60
2023-02-14T06:05:20.347Z,-2.60
2023-02-14T06:07:51.017Z,-2.60
2023-02-14T06:10:18.746Z,-2.50
2023-02-14T06:12:46.469Z,-2.50
2023-02-14T06:15:16.584Z,-2.60
2023-02-14T06:17:43.905Z,-2.60
2023-02-14T06:20:11.397Z,-2.60
2023-02-14T06:22:39.253Z,-2.60
2023-02-14T06:25:06.568Z,-2.60
2023-02-14T06:27:33.871Z,-2.60
2023-02-14T06:30:01.197Z,-2.60
2023-02-14T06:32:28.373Z,-2.60
2023-02-14T06:34:56.624Z,-2.70
2023-02-14T06:37:23.817Z,-2.60
2023-02-14T06:39:50.969Z,-2.60
2023-02-14T06:42:20.276Z,-2.60
2023-02-14T06:44:47.376Z,-2.50
2023-02-14T06:47:14.780Z,-2.50
2023-02-14T06:49:41.887Z,-2.40
2023-02-14T06:52:09.008Z,-2.30
2023-02-14T06:54:36.361Z,-2.30
2023-02-14T06:57:03.612Z,-2.20
2023-02-14T06:59:30.950Z,-2.00
2023-02-14T07:01:58.065Z,-1.90
2023-02-14T07:04:25.382Z,-1.70
2023-02-14T07:06:52.995Z,-1.50
2023-02-14T07:09:20.231Z,-1.30
2023-02-14T07:11:47.422Z,-0.90
2023-02-14T07:14:14.828Z,-0.50
2023-02-14T07:16:42.126Z,0.00
2023-02-14T07:19:09.382Z,0.50
2023-02-14T07:21:36.708Z,1.10
2023-02-14T07:24:03.816Z,1.60
2023-02-14T07:26:31.164Z,2.10
2023-02-14T07:28:58.337Z,2.70
2023-02-14T07:31:25.769Z,3.40
2023-02-14T07:33:53.249Z,4.00
2023-02-14T07:36:20.552Z,4.60
2023-02-14T07:38:47.739Z,5.30
2023-02-14T07:41:14.905Z,6.00
2023-02-14T07:43:42.003Z,6.60
2023-02-14T07:46:09.325Z,7.10
2023-02-14T07:48:36.516Z,7.80
2023-02-14T07:51:04.071Z,8.40
2023-02-14T07:53:31.316Z,8.90
2023-02-14T07:55:58.469Z,9.50
2023-02-14T07:58:25.729Z,10.00
2023-02-14T08:00:52.866Z,10.60
2023-02-14T08:03:20.317Z,11.10
2023-02-14T08:05:57.344Z,11.30
2023-02-14T08:08:29.485Z,11.60
2023-02-14T08:10:57.255Z,12.10
2023-02-14T08:13:24.558Z,12.40
2023-02-14T08:16:07.742Z,12.80
2023-02-14T08:18:35.018Z,13.00
2023-02-14T08:21:02.596Z,13.30
2023-02-14T08:23:29.874Z,13.40
2023-02-14T08:25:57.331Z,13.70
2023-02-14T08:28:25.147Z,13.90
2023-02-14T08:30:53.121Z,14.10
2023-02-14T08:33:20.747Z,14.20
2023-02-14T08:35:47.990Z,14.50
2023-02-14T08:38:15.149Z,15.20
2023-02-14T08:40:42.693Z,15.40
2023-02-14T08:43:09.913Z,15.60
2023-02-14T08:45:37.563Z,16.10
2023-02-14T08:48:06.061Z,16.60
2023-02-14T08:50:33.398Z,16.60
2023-02-14T08:53:00.717Z,17.10
2023-02-14T08:55:27.939Z,17.80
2023-02-14T08:57:56.884Z,19.00
2023-02-14T09:00:24.164Z,19.90
2023-02-14T09:02:52.775Z,20.30
2023-02-14T09:05:21.434Z,20.60
2023-02-14T09:07:48.606Z,21.00
2023-02-14T09:10:17.144Z,21.40
2023-02-14T09:12:44.584Z,21.90
2023-02-14T09:15:11.688Z,22.80
2023-02-14T09:17:39.323Z,22.80
2023-02-14T09:20:07.619Z,23.20
2023-02-14T09:22:34.995Z,23.60
2023-02-14T09:25:02.666Z,24.70
2023-02-14T09:27:30.519Z,24.70
2023-02-14T09:29:57.784Z,25.20
2023-02-14T09:32:26.653Z,25.80
2023-02-14T09:34:54.117Z,25.00
2023-02-14T09:37:40.055Z,25.50
2023-02-14T09:40:07.619Z,25.70
2023-02-14T09:42:41.725Z,26.50
2023-02-14T09:45:13.770Z,26.50
2023-02-14T09:47:41.035Z,25.80
2023-02-14T09:50:25.927Z,26.20
2023-02-14T09:52:56.435Z,25.50
2023-02-14T09:55:26.477Z,27.40
2023-02-14T09:57:53.581Z,28.20
2023-02-14T10:00:30.578Z,27.60
2023-02-14T10:03:00.729Z,28.30
2023-02-14T10:05:32.719Z,28.70
2023-02-14T10:08:09.238Z,28.60
2023-02-14T10:11:02.963Z,27.60
2023-02-14T10:13:33.730Z,27.70
2023-02-14T10:16:08.785Z,29.10
2023-02-14T10:18:59.348Z,30.10
2023-02-14T10:21:32.619Z,30.00
2023-02-14T10:24:21.373Z,28.90
2023-02-14T10:26:49.760Z,27.80
2023-02-14T10:29:18.124Z,27.50
2023-02-14T10:31:55.793Z,27.90
2023-02-14T10:34:26.204Z,29.00
2023-02-14T10:36:53.423Z,29.90
2023-02-14T10:39:20.632Z,30.50
2023-02-14T10:41:58.087Z,29.10
2023-02-14T10:44:28.551Z,29.00
2023-02-14T10:47:04.989Z,27.90
2023-02-14T10:49:38.119Z,28.80
2023-02-14T10:52:14.481Z,28.50
2023-02-14T10:54:51.406Z,28.50
2023-02-14T10:57:41.261Z,28.40
2023-02-14T11:00:17.879Z,27.80
2023-02-14T11:02:46.715Z,26.90
2023-02-14T11:05:40.488Z,27.20
2023-02-14T11:08:14.265Z,25.70
2023-02-14T11:10:41.627Z,26.60
2023-02-14T11:13:28.793Z,26.80
2023-02-14T11:15:59.763Z,26.00
2023-02-14T11:18:33.163Z,24.40
2023-02-14T11:21:05.323Z,25.00
2023-02-14T11:23:34.473Z,25.40
2023-02-14T11:26:02.405Z,24.50
2023-02-14T11:28:29.877Z,24.80
2023-02-14T11:30:57.536Z,24.20
2023-02-14T11:33:41.423Z,24.10
2023-02-14T11:36:13.645Z,22.30
2023-02-14T11:38:41.567Z,20.80
2023-02-14T11:41:11.105Z,19.50
2023-02-14T11:43:38.426Z,18.70
2023-02-14T11:46:21.270Z,17.90
2023-02-14T11:49:00.078Z,17.40
2023-02-14T11:51:33.472Z,16.70
2023-02-14T11:54:04.992Z,16.40
2023-02-14T11:56:50.019Z,15.70
2023-02-14T11:59:26.355Z,14.70
2023-02-14T12:01:54.576Z,15.20
2023-02-14T12:04:24.242Z,14.80
2023-02-14T12:06:51.536Z,14.40
2023-02-14T12:09:25.288Z,14.90
2023-02-14T12:11:59.496Z,14.90
2023-02-14T12:14:31.088Z,14.90
2023-02-14T12:17:19.124Z,14.90
2023-02-14T12:19:46.450Z,14.80
2023-02-14T12:22:17.097Z,14.80
2023-02-14T12:24:50.401Z,14.70
2023-02-14T12:27:17.856Z,14.20
2023-02-14T12:29:45.141Z,14.20
2023-02-14T12:32:18.525Z,13.90
2023-02-14T12:34:48.352Z,14.00
2023-02-14T12:37:35.711Z,13.60
2023-02-14T12:40:02.982Z,13.40
2023-02-14T12:42:34.682Z,12.90
2023-02-14T12:45:05.055Z,12.50
2023-02-14T12:47:35.621Z,12.70
2023-02-14T12:50:18.941Z,12.80
2023-02-14T12:52:48.777Z,12.10
2023-02-14T12:55:39.569Z,12.10
2023-02-14T12:58:10.331Z,12.30
2023-02-14T13:01:04.277Z,12.20
2023-02-14T13:03:38.488Z,12.30
2023-02-14T13:06:18.410Z,12.40
2023-02-14T13:08:52.066Z,11.90
2023-02-14T13:11:34.127Z,11.80
2023-02-14T13:14:10.689Z,11.50
2023-02-14T13:16:37.997Z,11.30
2023-02-14T13:19:05.334Z,11.60
2023-02-14T13:21:34.457Z,11.60
2023-02-14T13:24:28.390Z,11.70
2023-02-14T13:27:00.049Z,11.70
2023-02-14T13:29:53.897Z,11.60
2023-02-14T13:32:22.908Z,11.60
2023-02-14T13:34:50.922Z,11.40
2023-02-14T13:37:19.719Z,11.40
2023-02-14T13:40:16.466Z,11.40
2023-02-14T13:42:52.976Z,11.30
2023-02-14T13:45:35.610Z,11.30
2023-02-14T13:48:02.940Z,11.40
2023-02-14T13:50:30.355Z,11.20
2023-02-14T13:52:57.613Z,11.30
2023-02-14T13:55:28.650Z,11.30
2023-02-14T13:58:03.697Z,11.40
2023-02-14T14:00:41.098Z,11.30
2023-02-14T14:03:13.815Z,11.20
2023-02-14T14:05:44.450Z,11.20
2023-02-14T14:08:18.064Z,11.20
2023-02-14T14:10:46.825Z,11.30
2023-02-14T14:13:34.486Z,11.30
2023-02-14T14:16:21.577Z,11.40
2023-02-14T14:18:50.887Z,11.20
2023-02-14T14:21:27.613Z,11.10
2023-02-14T14:24:14.018Z,11.10
2023-02-14T14:26:43.206Z,11.10
2023-02-14T14:29:16.725Z,11.00
2023-02-14T14:31:44.150Z,11.00
2023-02-14T14:34:16.997Z,10.90
2023-02-14T14:36:44.304Z,10.80
2023-02-14T14:39:11.782Z,10.70
2023-02-14T14:41:39.634Z,10.80
2023-02-14T14:44:07.169Z,10.60
2023-02-14T14:46:34.470Z,10.60
2023-02-14T14:49:02.657Z,10.70
2023-02-14T14:51:34.747Z,10.60
2023-02-14T14:54:06.099Z,10.70
2023-02-14T14:56:35.679Z,10.70
2023-02-14T14:59:18.612Z,10.70
2023-02-14T15:01:46.312Z,10.50
2023-02-14T15:04:18.593Z,10.40
2023-02-14T15:06:47.682Z,10.50
2023-02-14T15:09:35.929Z,10.50
2023-02-14T15:12:22.924Z,10.50
2023-02-14T15:14:55.005Z,10.50
2023-02-14T15:17:25.718Z,10.50
2023-02-14T15:20:03.199Z,10.50
2023-02-14T15:22:34.529Z,10.40
2023-02-14T15:25:07.926Z,10.40
2023-02-14T15:27:39.519Z,10.40
2023-02-14T15:30:10.050Z,10.30
2023-02-14T15:32:38.442Z,10.40
2023-02-14T15:35:07.145Z,10.30
2023-02-14T15:37:34.928Z,10.20
2023-02-14T15:40:02.369Z,10.20
2023-02-14T15:42:33.120Z,10.10
2023-02-14T15:45:19.526Z,10.00
2023-02-14T15:47:48.148Z,10.00
2023-02-14T15:50:17.144Z,10.00
2023-02-14T15:52:45.760Z,9.80
2023-02-14T15:55:16.252Z,9.70
2023-02-14T15:57:45.575Z,9.70
2023-02-14T16:00:17.606Z,9.70
2023-02-14T16:02:48.180Z,9.50
2023-02-14T16:05:24.400Z,9.40
2023-02-14T16:07:58.268Z,9.30
2023-02-14T16:10:27.289Z,9.10
2023-02-14T16:13:00.170Z,8.90
2023-02-14T16:15:31.684Z,8.90
2023-02-14T16:18:00.348Z,8.80
2023-02-14T16:20:41.257Z,8.70
2023-02-14T16:23:28.556Z,8.70
2023-02-14T16:25:59.263Z,8.60
2023-02-14T16:28:30.805Z,8.30
2023-02-14T16:30:59.352Z,8.00
2023-02-14T16:33:29.956Z,8.00
2023-02-14T16:36:02.117Z,7.90
2023-02-14T16:38:29.649Z,7.70
2023-02-14T16:40:57.123Z,7.70
2023-02-14T16:43:24.689Z,7.60
2023-02-14T16:45:52.636Z,7.40
2023-02-14T16:48:20.493Z,7.30
2023-02-14T16:50:48.257Z,7.20
2023-02-14T16:53:25.012Z,7.00
2023-02-14T16:55:53.568Z,7.00
2023-02-14T16:58:23.524Z,7.00
2023-02-14T17:00:51.244Z,6.80
2023-02-14T17:03:19.345Z,6.80
2023-02-14T17:05:47.120Z,6.70
2023-02-14T17:08:16.312Z,6.70
2023-02-14T17:10:45.218Z,6.50
2023-02-14T17:13:12.969Z,6.40
2023-02-14T17:15:41.164Z,6.40
2023-02-14T17:18:11.586Z,6.40
2023-02-14T17:20:40.089Z,6.30
2023-02-14T17:23:08.335Z,6.20
2023-02-14T17:25:36.417Z,6.10
2023-02-14T17:28:04.113Z,6.00
2023-02-14T17:30:33.252Z,6.00
2023-02-14T17:33:01.195Z,5.80
2023-02-14T17:35:28.879Z,5.70
2023-02-14T17:37:56.910Z,5.60
2023-02-14T17:40:25.052Z,5.60
2023-02-14T17:42:53.095Z,5.50
2023-02-14T17:45:20.876Z,5.40
2023-02-14T17:47:49.292Z,5.30
2023-02-14T17:50:18.415Z,5.20
2023-02-14T17:52:46.282Z,5.20
2023-02-14T17:55:15.379Z,5.00
2023-02-14T17:57:43.880Z,5.00
2023-02-14T18:00:13.238Z,5.00
2023-02-14T18:02:43.960Z,5.00
2023-02-14T18:05:13.022Z,4.90
2023-02-14T18:07:41.223Z,4.80
2023-02-14T18:10:09.697Z,4.80
2023-02-14T18:12:40.188Z,4.80
2023-02-14T18:15:08.377Z,4.60
2023-02-14T18:17:36.684Z,4.60
2023-02-14T18:20:06.034Z,4.50
2023-02-14T18:22:35.812Z,4.50
2023-02-14T18:25:04.001Z,4.30
2023-02-14T18:27:32.853Z,4.30
2023-02-14T18:30:01.275Z,4.40
2023-02-14T18:32:29.650Z,4.30
2023-02-14T18:34:57.742Z,4.20
2023-02-14T18:37:25.636Z,4.10
2023-02-14T18:39:55.463Z,4.00
2023-02-14T18:42:24.035Z,4.00
2023-02-14T18:44:52.168Z,4.00
2023-02-14T18:47:20.576Z,4.00
2023-02-14T18:49:49.662Z,4.00
2023-02-14T18:52:17.967Z,4.00
2023-02-14T18:54:49.457Z,3.90
2023-02-14T18:57:21.281Z,3.80
2023-02-14T18:59:51.151Z,3.70
2023-02-14T19:02:19.509Z,3.70
2023-02-14T19:04:47.666Z,3.70
2023-02-14T19:07:15.702Z,3.60
2023-02-14T19:09:44.206Z,3.50
2023-02-14T19:12:12.948Z,3.50
2023-02-14T19:14:41.645Z,3.50
2023-02-14T19:17:10.365Z,3.60
2023-02-14T19:19:39.161Z,3.50
2023-02-14T19:22:07.304Z,3.40
2023-02-14T19:24:37.170Z,3.30
2023-02-14T19:27:05.918Z,3.20
2023-02-14T19:29:35.263Z,3.30
2023-02-14T19:32:04.874Z,3.30
2023-02-14T19:34:34.044Z,3.20
2023-02-14T19:37:04.120Z,3.20
2023-02-14T19:39:32.424Z,3.10
2023-02-14T19:42:03.941Z,3.00
2023-02-14T19:44:33.351Z,2.90
2023-02-14T19:47:09.779Z,2.90
2023-02-14T19:49:46.081Z,2.90
2023-02-14T19:52:26.474Z,2.90
2023-02-14T19:54:56.702Z,2.90
2023-02-14T19:57:25.805Z,2.90
2023-02-14T19:59:54.263Z,2.90
2023-02-14T20:02:25.708Z,2.80
2023-02-14T20:04:55.353Z,2.50
2023-02-14T20:07:25.961Z,2.40
2023-02-14T20:09:56.412Z,2.40
2023-02-14T20:12:26.610Z,2.40
2023-02-14T20:14:55.442Z,2.40
2023-02-14T20:17:23.824Z,2.40
2023-02-14T20:19:56.027Z,2.40
2023-02-14T20:22:25.245Z,2.40
2023-02-14T20:24:53.810Z,2.40
2023-02-14T20:27:25.459Z,2.40
2023-02-14T20:29:57.470Z,2.30
2023-02-14T20:32:29.157Z,2.30
2023-02-14T20:34:58.034Z,2.20
2023-02-14T20:37:28.114Z,2.10
2023-02-14T20:39:56.683Z,2.10
2023-02-14T20:42:26.415Z,2.10
2023-02-14T20:44:54.907Z,2.00
2023-02-14T20:47:23.401Z,2.10
2023-02-14T20:49:51.829Z,2.00
2023-02-14T20:52:20.460Z,2.00
2023-02-14T20:54:51.863Z,1.90
2023-02-14T20:57:20.785Z,1.90
2023-02-14T20:59:49.338Z,1.80
2023-02-14T21:02:20.586Z,1.70
2023-02-14T21:04:48.959Z,1.60
2023-02-14T21:07:19.209Z,1.60
2023-02-14T21:09:47.453Z,1.60
2023-02-14T21:12:16.769Z,1.60
2023-02-14T21:14:45.324Z,1.60
2023-02-14T21:17:14.699Z,1.50
2023-02-14T21:19:43.416Z,1.40
2023-02-14T21:22:12.077Z,1.40
2023-02-14T21:24:41.224Z,1.40
2023-02-14T21:27:09.828Z,1.40
2023-02-14T21:29:38.662Z,1.40
2023-02-14T21:32:08.152Z,1.40
2023-02-14T21:34:37.194Z,1.40
2023-02-14T21:37:07.853Z,1.30
2023-02-14T21:39:36.607Z,1.20
2023-02-14T21:42:05.828Z,1.20
2023-02-14T21:44:52.804Z,1.10
2023-02-14T21:47:21.266Z,1.10
2023-02-14T21:50:09.248Z,1.00
2023-02-14T21:52:37.372Z,1.00
2023-02-14T21:55:05.915Z,1.00
2023-02-14T21:57:34.361Z,1.00
2023-02-14T22:00:02.843Z,1.00
2023-02-14T22:02:40.113Z,1.00
2023-02-14T22:05:08.430Z,1.10
2023-02-14T22:07:35.808Z,1.10
2023-02-14T22:10:04.327Z,1.00
2023-02-14T22:12:32.152Z,1.00
2023-02-14T22:15:01.762Z,1.00
2023-02-14T22:17:29.369Z,1.00
2023-02-14T22:19:56.738Z,1.00
2023-02-14T22:22:24.144Z,1.00
2023-02-14T22:24:51.531Z,1.00
2023-02-14T22:27:19.440Z,1.10
2023-02-14T22:29:46.719Z,1.10
2023-02-14T22:32:14.186Z,1.10
2023-02-14T22:34:41.684Z,1.10
2023-02-14T22:37:09.129Z,1.10
2023-02-14T22:39:36.426Z,1.20
2023-02-14T22:42:06.988Z,1.20
2023-02-14T22:44:34.233Z,1.20
2023-02-14T22:47:01.652Z,1.20
2023-02-14T22:49:28.932Z,1.30
2023-02-14T22:51:56.246Z,1.20
2023-02-14T22:54:23.505Z,1.20
2023-02-14T22:56:53.618Z,1.30
2023-02-14T22:59:22.358Z,1.30
2023-02-14T23:01:51.161Z,1.30
2023-02-14T23:04:19.362Z,1.30
2023-02-14T23:06:46.851Z,1.30
2023-02-14T23:09:14.957Z,1.30
2023-02-14T23:11:52.185Z,1.30
2023-02-14T23:14:38.614Z,1.40
2023-02-14T23:17:15.419Z,1.40
2023-02-14T23:20:02.051Z,1.40
2023-02-14T23:22:30.930Z,1.40
2023-02-14T23:24:59.051Z,1.40
2023-02-14T23:27:30.765Z,1.40
2023-02-14T23:29:58.279Z,1.50
2023-02-14T23:32:25.837Z,1.50
2023-02-14T23:34:53.139Z,1.50
2023-02-14T23:37:20.646Z,1.60
2023-02-14T23:39:47.842Z,1.50
2023-02-14T23:42:16.292Z,1.60
2023-02-14T23:44:44.355Z,1.60
2023-02-14T23:47:12.659Z,1.60
2023-02-14T23:49:40.444Z,1.60
2023-02-14T23:52:08.892Z,1.70
2023-02-14T23:54:36.708Z,1.70
2023-02-14T23:57:04.409Z,1.70
2023-02-14T23:59:32.076Z,1.70
